createdAt,value
2018-02-08T00:00:45.484Z,3.70
2018-02-08T00:03:13.823Z,3.70
2018-02-08T00:05:42.155Z,3.70
2018-02-08T00:08:10.485Z,3.70
2018-02-08T00:10:38.830Z,3.70
2018-02-08T00:13:07.131Z,3.70
2018-02-08T00:15:36.198Z,3.60
2018-02-08T00:18:04.543Z,3.60
2018-02-08T00:20:32.905Z,3.60
2018-02-08T00:23:01.987Z,3.60
2018-02-08T00:25:31.091Z,3.60
2018-02-08T00:28:00.179Z,3.60
2018-02-08T00:30:28.505Z,3.60
2018-02-08T00:32:56.950Z,3.60
2018-02-08T00:35:26.077Z,3.60
2018-02-08T00:37:54.508Z,3.50
2018-02-08T00:40:22.817Z,3.60
2018-02-08T00:42:51.916Z,3.60
2018-02-08T00:45:21.768Z,3.60
2018-02-08T00:47:50.111Z,3.60
2018-02-08T00:50:18.427Z,3.60
2018-02-08T00:52:47.505Z,3.60
2018-02-08T00:55:16.583Z,3.60
2018-02-08T00:57:44.889Z,3.60
2018-02-08T01:00:13.965Z,3.60
2018-02-08T01:02:42.266Z,3.60
2018-02-08T01:05:11.337Z,3.60
2018-02-08T01:07:40.430Z,3.60
2018-02-08T01:10:08.749Z,3.50
2018-02-08T01:12:37.825Z,3.60
2018-02-08T01:15:06.118Z,3.60
2018-02-08T01:17:34.425Z,3.60
2018-02-08T01:20:03.515Z,3.70
2018-02-08T01:22:31.837Z,3.70
2018-02-08T01:25:00.151Z,3.70
2018-02-08T01:27:28.483Z,3.70
2018-02-08T01:29:56.776Z,3.70
2018-02-08T01:32:25.060Z,3.70
2018-02-08T01:34:53.596Z,3.70
2018-02-08T01:37:22.928Z,3.60
2018-02-08T01:39:51.287Z,3.60
2018-02-08T01:42:20.449Z,3.60
2018-02-08T01:44:48.800Z,3.60
2018-02-08T01:47:17.139Z,3.60
2018-02-08T01:49:46.288Z,3.60
2018-02-08T01:52:15.393Z,3.50
2018-02-08T01:54:43.833Z,3.50
2018-02-08T01:57:12.118Z,3.50
2018-02-08T01:59:40.408Z,3.50
2018-02-08T02:02:08.710Z,3.50
2018-02-08T02:04:37.793Z,3.50
2018-02-08T02:07:06.894Z,3.50
2018-02-08T02:09:36.063Z,3.60
2018-02-08T02:12:04.406Z,3.50
2018-02-08T02:14:32.709Z,3.50
2018-02-08T02:17:01.003Z,3.40
2018-02-08T02:19:29.337Z,3.30
2018-02-08T02:21:57.651Z,3.30
2018-02-08T02:24:25.960Z,3.20
2018-02-08T02:26:54.297Z,3.20
2018-02-08T02:29:22.613Z,3.20
2018-02-08T02:31:50.901Z,3.20
2018-02-08T02:34:19.197Z,3.30
2018-02-08T02:36:47.525Z,3.30
2018-02-08T02:39:15.873Z,3.30
2018-02-08T02:41:44.970Z,3.40
2018-02-08T02:44:13.290Z,3.40
2018-02-08T02:46:41.606Z,3.40
2018-02-08T02:49:09.903Z,3.40
2018-02-08T02:51:38.987Z,3.40
2018-02-08T02:54:07.287Z,3.30
2018-02-08T02:56:35.602Z,3.40
2018-02-08T02:59:03.918Z,3.40
2018-02-08T03:01:32.329Z,3.50
2018-02-08T03:04:00.663Z,3.50
2018-02-08T03:06:28.959Z,3.50
2018-02-08T03:08:57.283Z,3.50
2018-02-08T03:11:25.593Z,3.50
2018-02-08T03:13:53.890Z,3.50
2018-02-08T03:16:22.207Z,3.50
2018-02-08T03:18:50.524Z,3.40
2018-02-08T03:21:19.585Z,3.40
2018-02-08T03:23:48.669Z,3.40
2018-02-08T03:26:17.012Z,3.30
2018-02-08T03:28:46.102Z,3.30
2018-02-08T03:31:15.212Z,3.20
2018-02-08T03:33:43.520Z,3.20
2018-02-08T03:36:11.922Z,3.30
2018-02-08T03:38:40.226Z,3.30
2018-02-08T03:41:08.546Z,3.30
2018-02-08T03:43:37.612Z,3.20
2018-02-08T03:46:05.911Z,3.20
2018-02-08T03:48:34.222Z,3.20
2018-02-08T03:51:02.527Z,3.20
2018-02-08T03:53:30.838Z,3.20
2018-02-08T03:55:59.149Z,3.20
2018-02-08T03:58:28.215Z,3.10
2018-02-08T04:00:57.280Z,3.10
2018-02-08T04:03:25.570Z,3.10
2018-02-08T04:05:53.878Z,3.00
2018-02-08T04:08:22.210Z,3.00
2018-02-08T04:10:50.508Z,2.90
2018-02-08T04:13:18.819Z,2.90
2018-02-08T04:15:47.112Z,2.90
2018-02-08T04:18:15.398Z,2.90
2018-02-08T04:20:43.709Z,2.90
2018-02-08T04:23:12.029Z,2.90
2018-02-08T04:25:41.132Z,2.90
2018-02-08T04:28:09.440Z,2.90
2018-02-08T04:30:37.768Z,2.90
2018-02-08T04:33:06.868Z,2.90
2018-02-08T04:35:36.026Z,3.00
2018-02-08T04:38:05.137Z,2.90
2018-02-08T04:40:51.692Z,2.90
2018-02-08T04:43:37.530Z,2.90
2018-02-08T04:46:24.223Z,2.80
2018-02-08T04:48:53.301Z,2.80
2018-02-08T04:51:21.584Z,2.70
2018-02-08T04:53:49.882Z,2.70
2018-02-08T04:56:18.946Z,2.50
2018-02-08T04:58:47.241Z,2.50
2018-02-08T05:01:15.551Z,2.50
2018-02-08T05:03:44.672Z,2.30
2018-02-08T05:06:12.994Z,2.30
2018-02-08T05:08:41.296Z,2.30
2018-02-08T05:11:09.606Z,2.20
2018-02-08T05:13:37.918Z,2.10
2018-02-08T05:16:07.022Z,2.00
2018-02-08T05:18:35.350Z,2.00
2018-02-08T05:21:03.670Z,2.00
2018-02-08T05:23:31.967Z,1.90
2018-02-08T05:26:00.282Z,1.90
2018-02-08T05:28:28.577Z,1.90
2018-02-08T05:30:57.672Z,1.90
2018-02-08T05:33:25.992Z,1.90
2018-02-08T05:35:55.094Z,1.80
2018-02-08T05:38:23.378Z,1.80
2018-02-08T05:40:51.714Z,1.80
2018-02-08T05:43:19.984Z,1.80
2018-02-08T05:45:48.322Z,1.80
2018-02-08T05:48:16.654Z,1.80
2018-02-08T05:50:45.021Z,1.80
2018-02-08T05:53:13.274Z,1.80
2018-02-08T05:55:41.597Z,1.90
2018-02-08T05:58:09.906Z,1.90
2018-02-08T06:00:39.062Z,1.90
2018-02-08T06:03:07.425Z,1.90
2018-02-08T06:05:35.766Z,1.80
2018-02-08T06:08:04.845Z,1.70
2018-02-08T06:10:33.169Z,1.70
2018-02-08T06:13:01.459Z,1.60
2018-02-08T06:15:29.818Z,1.50
2018-02-08T06:17:58.866Z,1.50
2018-02-08T06:20:27.171Z,1.50
2018-02-08T06:22:55.466Z,1.50
2018-02-08T06:25:24.542Z,1.40
2018-02-08T06:27:52.842Z,1.40
2018-02-08T06:30:21.188Z,1.40
2018-02-08T06:32:49.562Z,1.40
2018-02-08T06:35:17.880Z,1.30
2018-02-08T06:37:46.189Z,1.30
2018-02-08T06:40:15.273Z,1.40
2018-02-08T06:42:43.580Z,1.30
2018-02-08T06:45:12.628Z,1.40
2018-02-08T06:47:40.926Z,1.40
2018-02-08T06:50:09.266Z,1.40
2018-02-08T06:52:37.579Z,1.50
2018-02-08T06:55:05.936Z,1.50
2018-02-08T06:57:35.014Z,1.50
2018-02-08T07:00:03.324Z,1.50
2018-02-08T07:02:31.634Z,1.50
2018-02-08T07:05:00.706Z,1.50
2018-02-08T07:07:29.050Z,1.50
2018-02-08T07:09:57.372Z,1.50
2018-02-08T07:12:25.690Z,1.50
2018-02-08T07:14:54.024Z,1.50
2018-02-08T07:17:22.338Z,1.50
2018-02-08T07:19:50.646Z,1.50
2018-02-08T07:22:19.714Z,1.40
2018-02-08T07:24:48.044Z,1.40
2018-02-08T07:27:16.368Z,1.40
2018-02-08T07:29:44.674Z,1.40
2018-02-08T07:32:13.026Z,1.40
2018-02-08T07:34:41.348Z,1.40
2018-02-08T07:37:10.458Z,1.50
2018-02-08T07:39:39.532Z,1.50
2018-02-08T07:42:07.818Z,1.50
2018-02-08T07:44:36.160Z,1.60
2018-02-08T07:47:04.540Z,1.60
2018-02-08T07:49:33.632Z,1.70
2018-02-08T07:52:01.985Z,1.70
2018-02-08T07:54:31.094Z,1.70
2018-02-08T07:57:00.170Z,1.60
2018-02-08T07:59:28.516Z,1.60
2018-02-08T08:01:56.846Z,1.60
2018-02-08T08:04:25.958Z,1.60
2018-02-08T08:06:55.028Z,1.60
2018-02-08T08:09:23.358Z,1.60
2018-02-08T08:11:51.702Z,1.60
2018-02-08T08:14:21.715Z,1.70
2018-02-08T08:16:50.028Z,1.70
2018-02-08T08:19:19.146Z,1.70
2018-02-08T08:21:47.520Z,1.60
2018-02-08T08:24:15.834Z,1.70
2018-02-08T08:26:44.394Z,1.80
2018-02-08T08:29:13.505Z,2.00
2018-02-08T08:31:41.845Z,1.90
2018-02-08T08:34:10.906Z,2.00
2018-02-08T08:36:39.992Z,2.00
2018-02-08T08:39:08.306Z,2.10
2018-02-08T08:41:36.690Z,2.10
2018-02-08T08:44:05.934Z,2.20
2018-02-08T08:46:34.240Z,2.30
2018-02-08T08:49:02.560Z,2.40
2018-02-08T08:51:30.906Z,2.50
2018-02-08T08:53:59.952Z,2.70
2018-02-08T08:56:28.303Z,2.90
2018-02-08T08:58:56.635Z,3.20
2018-02-08T09:01:25.708Z,3.60
2018-02-08T09:03:54.280Z,3.60
2018-02-08T09:06:22.639Z,3.80
2018-02-08T09:08:50.945Z,3.90
2018-02-08T09:11:20.666Z,4.10
2018-02-08T09:13:49.010Z,4.10
2018-02-08T09:16:17.334Z,4.20
2018-02-08T09:18:46.435Z,4.40
2018-02-08T09:21:15.632Z,4.40
2018-02-08T09:23:43.978Z,4.40
2018-02-08T09:26:12.282Z,4.50
2018-02-08T09:28:40.562Z,4.60
2018-02-08T09:31:08.875Z,4.60
2018-02-08T09:33:37.172Z,4.70
2018-02-08T09:36:06.262Z,4.80
2018-02-08T09:38:34.564Z,4.80
2018-02-08T09:41:02.944Z,4.90
2018-02-08T09:43:32.421Z,5.10
2018-02-08T09:46:00.872Z,5.10
2018-02-08T09:48:29.510Z,5.20
2018-02-08T09:50:58.606Z,5.30
2018-02-08T09:53:27.709Z,5.20
2018-02-08T09:55:56.866Z,5.30
2018-02-08T09:58:25.190Z,5.40
2018-02-08T10:00:53.499Z,5.50
2018-02-08T10:03:21.808Z,5.50
2018-02-08T10:05:50.116Z,5.40
2018-02-08T10:08:18.455Z,5.30
2018-02-08T10:10:46.783Z,5.20
2018-02-08T10:13:15.862Z,5.00
2018-02-08T10:15:44.391Z,5.00
2018-02-08T10:18:12.721Z,4.80
2018-02-08T10:20:41.695Z,4.60
2018-02-08T10:23:10.042Z,4.60
2018-02-08T10:25:38.378Z,4.70
2018-02-08T10:28:06.961Z,4.90
2018-02-08T10:30:35.247Z,5.00
2018-02-08T10:33:03.540Z,5.10
2018-02-08T10:35:31.867Z,5.20
2018-02-08T10:38:00.190Z,5.30
2018-02-08T10:40:28.544Z,5.40
2018-02-08T10:42:57.798Z,5.70
2018-02-08T10:45:27.622Z,5.80
2018-02-08T10:47:55.960Z,5.70
2018-02-08T10:50:24.273Z,5.80
2018-02-08T10:52:52.630Z,5.80
2018-02-08T10:55:21.734Z,5.80
2018-02-08T10:57:50.037Z,5.90
2018-02-08T11:00:18.568Z,6.00
2018-02-08T11:02:46.865Z,6.20
2018-02-08T11:05:15.167Z,6.40
2018-02-08T11:07:44.160Z,6.40
2018-02-08T11:10:12.526Z,6.40
2018-02-08T11:12:41.590Z,6.40
2018-02-08T11:15:09.878Z,6.40
2018-02-08T11:17:38.227Z,6.40
2018-02-08T11:20:06.514Z,6.40
2018-02-08T11:22:34.831Z,6.40
2018-02-08T11:25:03.205Z,6.50
2018-02-08T11:27:32.273Z,6.60
2018-02-08T11:30:00.583Z,6.70
2018-02-08T11:32:28.879Z,6.70
2018-02-08T11:34:57.201Z,6.80
2018-02-08T11:37:25.523Z,6.80
2018-02-08T11:39:53.896Z,6.80
2018-02-08T11:42:23.259Z,6.80
2018-02-08T11:44:52.345Z,6.90
2018-02-08T11:47:22.095Z,6.90
2018-02-08T11:49:50.415Z,6.80
2018-02-08T11:52:18.749Z,6.80
2018-02-08T11:54:47.829Z,6.90
2018-02-08T11:57:16.923Z,6.90
2018-02-08T11:59:46.065Z,6.90
2018-02-08T12:02:14.400Z,6.80
2018-02-08T12:04:43.475Z,6.90
2018-02-08T12:07:11.779Z,6.90
2018-02-08T12:09:40.124Z,6.90
2018-02-08T12:12:08.429Z,7.00
2018-02-08T12:14:36.817Z,7.00
2018-02-08T12:17:05.131Z,7.10
2018-02-08T12:19:33.471Z,7.10
2018-02-08T12:22:01.817Z,7.10
2018-02-08T12:24:30.126Z,7.20
2018-02-08T12:26:58.467Z,7.20
2018-02-08T12:29:26.807Z,7.20
2018-02-08T12:31:55.854Z,7.10
2018-02-08T12:34:24.182Z,7.10
2018-02-08T12:36:53.300Z,7.20
2018-02-08T12:39:21.645Z,7.20
2018-02-08T12:41:49.971Z,7.20
2018-02-08T12:44:18.288Z,7.30
2018-02-08T12:46:46.581Z,7.30
2018-02-08T12:49:14.918Z,7.30
2018-02-08T12:51:43.237Z,7.30
2018-02-08T12:54:11.593Z,7.40
2018-02-08T12:56:40.719Z,7.40
2018-02-08T12:59:09.029Z,7.40
2018-02-08T13:01:37.424Z,7.50
2018-02-08T13:04:05.810Z,7.40
2018-02-08T13:06:34.144Z,7.50
2018-02-08T13:09:02.471Z,7.50
2018-02-08T13:11:30.809Z,7.50
2018-02-08T13:13:59.633Z,7.50
2018-02-08T13:16:27.960Z,7.60
2018-02-08T13:18:57.061Z,7.60
2018-02-08T13:21:26.160Z,7.60
2018-02-08T13:23:55.245Z,7.60
2018-02-08T13:26:24.347Z,7.70
2018-02-08T13:28:53.731Z,7.60
2018-02-08T13:31:37.859Z,7.70
2018-02-08T13:34:06.177Z,7.80
2018-02-08T13:36:36.937Z,7.80
2018-02-08T13:39:05.262Z,7.90
2018-02-08T13:41:33.659Z,8.00
2018-02-08T13:44:01.952Z,8.10
2018-02-08T13:46:30.279Z,8.20
2018-02-08T13:52:04.971Z,8.10
2018-02-08T13:54:34.336Z,8.10
2018-02-08T13:57:04.939Z,8.10
2018-02-08T13:59:39.585Z,8.00
2018-02-08T14:02:08.267Z,8.00
2018-02-08T14:04:36.647Z,8.00
2018-02-08T14:07:04.965Z,8.00
2018-02-08T14:09:33.283Z,8.00
2018-02-08T14:12:01.608Z,8.00
2018-02-08T14:14:30.023Z,8.10
2018-02-08T14:16:58.345Z,8.20
2018-02-08T14:19:26.691Z,8.20
2018-02-08T14:21:55.011Z,8.20
2018-02-08T14:24:23.343Z,8.20
2018-02-08T14:26:51.665Z,8.30
2018-02-08T14:29:20.734Z,8.30
2018-02-08T14:31:49.087Z,8.30
2018-02-08T14:34:17.464Z,8.30
2018-02-08T14:36:45.775Z,8.30
2018-02-08T14:39:14.104Z,8.30
2018-02-08T14:41:43.523Z,8.50
2018-02-08T14:44:11.963Z,8.50
2018-02-08T14:46:40.292Z,8.50
2018-02-08T14:49:08.606Z,8.40
2018-02-08T14:51:36.951Z,8.40
2018-02-08T14:54:05.267Z,8.40
2018-02-08T14:56:33.637Z,8.30
2018-02-08T14:59:02.495Z,8.20
2018-02-08T15:01:31.606Z,8.10
2018-02-08T15:04:00.702Z,8.00
2018-02-08T15:06:29.781Z,7.90
2018-02-08T15:08:59.582Z,7.80
2018-02-08T15:11:27.891Z,7.80
2018-02-08T15:13:57.049Z,7.60
2018-02-08T15:16:26.417Z,7.50
2018-02-08T15:18:54.736Z,7.50
2018-02-08T15:21:23.087Z,7.50
2018-02-08T15:23:51.425Z,7.50
2018-02-08T15:26:19.759Z,7.50
2018-02-08T15:28:48.145Z,7.50
2018-02-08T15:31:16.447Z,7.40
2018-02-08T15:33:44.773Z,7.30
2018-02-08T15:36:13.206Z,7.30
2018-02-08T15:38:41.510Z,7.20
2018-02-08T15:41:09.880Z,7.20
2018-02-08T15:43:38.215Z,7.10
2018-02-08T15:46:07.312Z,7.10
2018-02-08T15:48:36.411Z,7.00
2018-02-08T15:51:05.542Z,6.90
2018-02-08T15:53:33.903Z,6.90
2018-02-08T15:56:02.274Z,6.90
2018-02-08T15:58:31.363Z,6.70
2018-02-08T16:01:00.469Z,6.60
2018-02-08T16:03:29.642Z,6.60
2018-02-08T16:05:57.963Z,6.50
2018-02-08T16:08:27.055Z,6.30
2018-02-08T16:10:56.148Z,6.20
2018-02-08T16:13:24.479Z,6.20
2018-02-08T16:15:52.789Z,6.10
2018-02-08T16:18:21.131Z,6.00
2018-02-08T16:20:49.457Z,5.90
2018-02-08T16:23:17.815Z,5.90
2018-02-08T16:25:46.132Z,5.80
2018-02-08T16:28:15.243Z,5.70
2018-02-08T16:30:44.361Z,5.60
2018-02-08T16:33:13.747Z,5.60
2018-02-08T16:35:42.077Z,5.50
2018-02-08T16:38:10.379Z,5.50
2018-02-08T16:40:38.773Z,5.40
2018-02-08T16:43:07.218Z,5.30
2018-02-08T16:45:35.509Z,5.20
2018-02-08T16:48:03.839Z,5.20
2018-02-08T16:50:32.205Z,5.10
2018-02-08T16:53:00.547Z,5.00
2018-02-08T16:55:29.237Z,4.90
2018-02-08T16:57:57.623Z,4.90
2018-02-08T17:00:26.089Z,4.90
2018-02-08T17:02:55.173Z,4.80
2018-02-08T17:05:23.504Z,4.80
2018-02-08T17:07:51.837Z,4.70
2018-02-08T17:10:20.155Z,4.70
2018-02-08T17:12:48.719Z,4.60
2018-02-08T17:15:17.801Z,4.60
2018-02-08T17:17:46.117Z,4.50
2018-02-08T17:20:14.501Z,4.50
2018-02-08T17:22:42.828Z,4.50
2018-02-08T17:25:11.137Z,4.40
2018-02-08T17:27:40.315Z,4.40
2018-02-08T17:30:08.952Z,4.30
2018-02-08T17:32:37.284Z,4.30
2018-02-08T17:35:05.651Z,4.20
2018-02-08T17:37:34.020Z,4.20
2018-02-08T17:40:02.340Z,4.20
2018-02-08T17:42:30.791Z,4.10
2018-02-08T17:44:59.097Z,4.10
2018-02-08T17:47:27.451Z,4.10
2018-02-08T17:49:55.770Z,4.10
2018-02-08T17:52:24.079Z,4.10
2018-02-08T17:54:53.166Z,4.00
2018-02-08T17:57:22.255Z,4.00
2018-02-08T17:59:50.580Z,4.00
2018-02-08T18:02:18.966Z,4.00
2018-02-08T18:04:47.307Z,3.90
2018-02-08T18:07:15.641Z,3.90
2018-02-08T18:09:43.953Z,3.80
2018-02-08T18:12:12.264Z,3.80
2018-02-08T18:14:40.590Z,3.70
2018-02-08T18:17:09.166Z,3.70
2018-02-08T18:19:38.241Z,3.60
2018-02-08T18:22:07.438Z,3.60
2018-02-08T18:24:36.529Z,3.60
2018-02-08T18:27:05.640Z,3.60
2018-02-08T18:29:34.714Z,3.50
2018-02-08T18:32:03.024Z,3.50
2018-02-08T18:34:32.139Z,3.50
2018-02-08T18:37:00.455Z,3.50
2018-02-08T18:39:28.789Z,3.50
2018-02-08T18:41:57.850Z,3.40
2018-02-08T18:44:26.154Z,3.40
2018-02-08T18:46:54.547Z,3.40
2018-02-08T18:49:22.864Z,3.40
2018-02-08T18:51:51.213Z,3.40
2018-02-08T18:54:20.313Z,3.30
2018-02-08T18:56:49.406Z,3.30
2018-02-08T18:59:17.724Z,3.30
2018-02-08T19:01:46.053Z,3.30
2018-02-08T19:04:14.672Z,3.30
2018-02-08T19:06:43.756Z,3.30
2018-02-08T19:09:12.350Z,3.20
2018-02-08T19:11:41.444Z,3.20
2018-02-08T19:14:10.520Z,3.20
2018-02-08T19:16:38.836Z,3.20
2018-02-08T19:19:07.898Z,3.20
2018-02-08T19:21:36.236Z,3.20
2018-02-08T19:24:04.636Z,3.20
2018-02-08T19:26:32.969Z,3.20
2018-02-08T19:29:01.308Z,3.10
2018-02-08T19:31:29.611Z,3.20
2018-02-08T19:33:57.911Z,3.20
2018-02-08T19:36:26.240Z,3.20
2018-02-08T19:38:54.530Z,3.10
2018-02-08T19:41:22.875Z,3.10
2018-02-08T19:43:51.957Z,3.10
2018-02-08T19:46:20.282Z,3.10
2018-02-08T19:48:48.593Z,3.10
2018-02-08T19:51:16.908Z,3.10
2018-02-08T19:53:45.236Z,3.10
2018-02-08T19:56:13.542Z,3.10
2018-02-08T19:58:41.872Z,3.00
2018-02-08T20:01:10.942Z,3.00
2018-02-08T20:03:39.250Z,3.00
2018-02-08T20:06:08.360Z,3.00
2018-02-08T20:08:37.462Z,3.00
2018-02-08T20:11:05.815Z,3.00
2018-02-08T20:13:34.150Z,3.00
2018-02-08T20:16:02.467Z,3.00
2018-02-08T20:18:30.780Z,2.90
2018-02-08T20:20:59.902Z,2.90
2018-02-08T20:23:28.212Z,2.90
2018-02-08T20:25:56.534Z,2.90
2018-02-08T20:28:24.899Z,2.80
2018-02-08T20:30:58.752Z,2.80
2018-02-08T20:33:27.056Z,2.80
2018-02-08T20:35:55.373Z,2.80
2018-02-08T20:38:23.676Z,2.80
2018-02-08T20:40:52.753Z,2.80
2018-02-08T20:43:26.590Z,2.80
2018-02-08T20:45:55.700Z,2.80
2018-02-08T20:48:24.026Z,2.80
2018-02-08T20:50:52.378Z,2.80
2018-02-08T20:53:20.692Z,2.80
2018-02-08T20:55:48.995Z,2.80
2018-02-08T20:58:17.320Z,2.80
2018-02-08T21:00:45.607Z,2.80
2018-02-08T21:03:13.937Z,2.80
2018-02-08T21:05:42.261Z,2.80
2018-02-08T21:08:10.576Z,2.80
2018-02-08T21:10:38.923Z,2.80
2018-02-08T21:13:07.242Z,2.90
2018-02-08T21:15:36.104Z,2.90
2018-02-08T21:18:04.394Z,2.90
2018-02-08T21:20:32.698Z,2.90
2018-02-08T21:23:01.022Z,2.90
2018-02-08T21:25:30.099Z,2.90
2018-02-08T21:27:58.443Z,2.90
2018-02-08T21:30:26.892Z,2.90
2018-02-08T21:32:56.006Z,2.70
2018-02-08T21:35:24.327Z,2.80
2018-02-08T21:37:52.662Z,2.80
2018-02-08T21:40:21.750Z,2.80
2018-02-08T21:42:50.102Z,2.80
2018-02-08T21:45:19.189Z,2.80
2018-02-08T21:47:47.487Z,2.80
2018-02-08T21:50:15.792Z,2.90
2018-02-08T21:52:44.144Z,3.00
2018-02-08T21:55:12.475Z,3.00
2018-02-08T21:57:41.573Z,3.00
2018-02-08T22:00:10.634Z,3.00
2018-02-08T22:02:38.975Z,3.00
2018-02-08T22:05:07.296Z,3.10
2018-02-08T22:07:35.621Z,3.10
2018-02-08T22:10:04.688Z,3.20
2018-02-08T22:12:33.020Z,3.20
2018-02-08T22:15:01.310Z,3.30
2018-02-08T22:17:29.616Z,3.30
2018-02-08T22:19:57.906Z,3.30
2018-02-08T22:22:26.266Z,3.40
2018-02-08T22:24:55.298Z,3.40
2018-02-08T22:27:23.708Z,3.40
2018-02-08T22:29:52.782Z,3.40
2018-02-08T22:32:21.084Z,3.40
2018-02-08T22:34:50.170Z,3.50
2018-02-08T22:37:18.489Z,3.50
2018-02-08T22:39:46.800Z,3.50
2018-02-08T22:42:15.166Z,3.50
2018-02-08T22:44:43.454Z,3.50
2018-02-08T22:47:11.792Z,3.60
2018-02-08T22:49:40.867Z,3.60
2018-02-08T22:52:09.166Z,3.60
2018-02-08T22:54:37.482Z,3.60
2018-02-08T22:57:05.798Z,3.60
2018-02-08T22:59:34.088Z,3.60
2018-02-08T23:02:02.418Z,3.70
2018-02-08T23:04:31.474Z,3.70
2018-02-08T23:07:00.638Z,3.70
2018-02-08T23:09:28.980Z,3.70
2018-02-08T23:11:57.297Z,3.60
2018-02-08T23:14:25.607Z,3.60
2018-02-08T23:16:53.911Z,3.60
2018-02-08T23:19:22.246Z,3.60
2018-02-08T23:21:50.590Z,3.60
2018-02-08T23:24:18.902Z,3.60
2018-02-08T23:26:47.214Z,3.50
2018-02-08T23:29:15.534Z,3.50
2018-02-08T23:31:44.640Z,3.40
2018-02-08T23:34:13.774Z,3.40
2018-02-08T23:36:42.126Z,3.40
2018-02-08T23:39:11.186Z,3.40
2018-02-08T23:41:39.578Z,3.40
2018-02-08T23:44:08.022Z,3.40
2018-02-08T23:46:36.364Z,3.40
2018-02-08T23:49:05.464Z,3.40
2018-02-08T23:51:33.896Z,3.40
2018-02-08T23:54:02.211Z,3.40
2018-02-08T23:56:30.519Z,3.40
2018-02-08T23:58:59.575Z,3.40
